sensor_id;sensor_type;location;lat;lon;timestamp;P1;durP1;ratioP1;P2;durP2;ratioP2
44774;SDS011;31340;51.402;0.016;2022-10-16T00:01:44;24.92;;;4.35;;
44774;SDS011;31340;51.402;0.016;2022-10-16T00:04:12;23.80;;;4.03;;
44774;SDS011;31340;51.402;0.016;2022-10-16T00:06:40;28.25;;;4.18;;
44774;SDS011;31340;51.402;0.016;2022-10-16T00:09:07;26.42;;;4.38;;
44774;SDS011;31340;51.402;0.016;2022-10-16T00:11:35;30.98;;;4.15;;
44774;SDS011;31340;51.402;0.016;2022-10-16T00:14:07;32.45;;;4.13;;
44774;SDS011;31340;51.402;0.016;2022-10-16T00:16:41;28.83;;;3.67;;
44774;SDS011;31340;51.402;0.016;2022-10-16T00:19:10;30.30;;;3.70;;
44774;SDS011;31340;51.402;0.016;2022-10-16T00:21:38;27.15;;;4.60;;
44774;SDS011;31340;51.402;0.016;2022-10-16T00:24:24;27.75;;;4.78;;
44774;SDS011;31340;51.402;0.016;2022-10-16T00:26:54;25.55;;;3.45;;
44774;SDS011;31340;51.402;0.016;2022-10-16T00:29:22;25.90;;;4.38;;
44774;SDS011;31340;51.402;0.016;2022-10-16T00:31:49;25.92;;;4.50;;
44774;SDS011;31340;51.402;0.016;2022-10-16T00:34:17;18.95;;;3.17;;
44774;SDS011;31340;51.402;0.016;2022-10-16T00:36:47;19.25;;;3.00;;
44774;SDS011;31340;51.402;0.016;2022-10-16T00:39:14;24.58;;;3.83;;
44774;SDS011;31340;51.402;0.016;2022-10-16T00:41:42;23.63;;;4.00;;
44774;SDS011;31340;51.402;0.016;2022-10-16T00:47:40;26.17;;;3.50;;
44774;SDS011;31340;51.402;0.016;2022-10-16T00:50:10;21.83;;;3.90;;
44774;SDS011;31340;51.402;0.016;2022-10-16T00:52:44;18.10;;;3.15;;
44774;SDS011;31340;51.402;0.016;2022-10-16T00:55:15;17.95;;;3.17;;
44774;SDS011;31340;51.402;0.016;2022-10-16T00:57:43;16.45;;;3.00;;
44774;SDS011;31340;51.402;0.016;2022-10-16T01:00:14;17.30;;;3.40;;
44774;SDS011;31340;51.402;0.016;2022-10-16T01:02:44;17.90;;;3.25;;
44774;SDS011;31340;51.402;0.016;2022-10-16T01:05:18;16.95;;;3.75;;
44774;SDS011;31340;51.402;0.016;2022-10-16T01:07:58;14.95;;;3.00;;
44774;SDS011;31340;51.402;0.016;2022-10-16T01:10:52;22.25;;;3.55;;
44774;SDS011;31340;51.402;0.016;2022-10-16T01:13:25;20.80;;;3.13;;
44774;SDS011;31340;51.402;0.016;2022-10-16T01:18:54;17.23;;;2.83;;
44774;SDS011;31340;51.402;0.016;2022-10-16T01:21:38;21.60;;;3.15;;
44774;SDS011;31340;51.402;0.016;2022-10-16T01:30:04;31.17;;;4.65;;
44774;SDS011;31340;51.402;0.016;2022-10-16T01:35:18;19.55;;;3.53;;
44774;SDS011;31340;51.402;0.016;2022-10-16T01:37:55;26.73;;;3.47;;
44774;SDS011;31340;51.402;0.016;2022-10-16T01:40:39;25.25;;;3.95;;
44774;SDS011;31340;51.402;0.016;2022-10-16T01:43:17;21.65;;;3.45;;
44774;SDS011;31340;51.402;0.016;2022-10-16T01:45:49;31.38;;;4.03;;
44774;SDS011;31340;51.402;0.016;2022-10-16T01:48:17;24.45;;;3.90;;
44774;SDS011;31340;51.402;0.016;2022-10-16T01:51:01;27.63;;;4.97;;
44774;SDS011;31340;51.402;0.016;2022-10-16T01:53:32;21.27;;;3.65;;
44774;SDS011;31340;51.402;0.016;2022-10-16T01:56:01;35.80;;;3.88;;
44774;SDS011;31340;51.402;0.016;2022-10-16T01:58:33;26.90;;;3.70;;
44774;SDS011;31340;51.402;0.016;2022-10-16T02:01:04;29.58;;;5.68;;
44774;SDS011;31340;51.402;0.016;2022-10-16T02:03:36;22.90;;;4.03;;
44774;SDS011;31340;51.402;0.016;2022-10-16T02:06:07;24.77;;;4.28;;
44774;SDS011;31340;51.402;0.016;2022-10-16T02:08:36;27.20;;;3.78;;
44774;SDS011;31340;51.402;0.016;2022-10-16T02:11:05;38.35;;;4.72;;
44774;SDS011;31340;51.402;0.016;2022-10-16T02:13:50;27.15;;;4.28;;
44774;SDS011;31340;51.402;0.016;2022-10-16T02:16:23;21.30;;;4.18;;
44774;SDS011;31340;51.402;0.016;2022-10-16T02:19:00;21.45;;;3.50;;
44774;SDS011;31340;51.402;0.016;2022-10-16T02:21:28;21.52;;;3.80;;
44774;SDS011;31340;51.402;0.016;2022-10-16T02:24:50;27.98;;;4.35;;
44774;SDS011;31340;51.402;0.016;2022-10-16T02:27:03;21.88;;;3.17;;
44774;SDS011;31340;51.402;0.016;2022-10-16T02:29:37;19.10;;;3.70;;
44774;SDS011;31340;51.402;0.016;2022-10-16T02:32:11;25.85;;;2.90;;
44774;SDS011;31340;51.402;0.016;2022-10-16T02:34:41;21.88;;;3.33;;
44774;SDS011;31340;51.402;0.016;2022-10-16T02:37:10;13.38;;;2.85;;
44774;SDS011;31340;51.402;0.016;2022-10-16T02:39:37;20.75;;;2.72;;
44774;SDS011;31340;51.402;0.016;2022-10-16T02:42:11;19.85;;;2.97;;
44774;SDS011;31340;51.402;0.016;2022-10-16T02:44:40;16.95;;;2.97;;
44774;SDS011;31340;51.402;0.016;2022-10-16T02:47:07;24.40;;;3.30;;
44774;SDS011;31340;51.402;0.016;2022-10-16T02:49:35;19.73;;;3.45;;
44774;SDS011;31340;51.402;0.016;2022-10-16T02:52:02;21.17;;;3.45;;
44774;SDS011;31340;51.402;0.016;2022-10-16T02:54:30;18.77;;;3.22;;
44774;SDS011;31340;51.402;0.016;2022-10-16T02:56:57;26.55;;;3.85;;
44774;SDS011;31340;51.402;0.016;2022-10-16T02:59:24;18.58;;;3.90;;
44774;SDS011;31340;51.402;0.016;2022-10-16T03:01:52;23.67;;;3.13;;
44774;SDS011;31340;51.402;0.016;2022-10-16T03:04:19;25.48;;;4.30;;
44774;SDS011;31340;51.402;0.016;2022-10-16T03:06:47;19.05;;;3.33;;
44774;SDS011;31340;51.402;0.016;2022-10-16T03:09:14;14.93;;;2.95;;
44774;SDS011;31340;51.402;0.016;2022-10-16T03:11:42;19.92;;;2.65;;
44774;SDS011;31340;51.402;0.016;2022-10-16T03:14:10;23.88;;;3.92;;
44774;SDS011;31340;51.402;0.016;2022-10-16T03:16:37;24.58;;;3.17;;
44774;SDS011;31340;51.402;0.016;2022-10-16T03:19:04;16.33;;;2.78;;
44774;SDS011;31340;51.402;0.016;2022-10-16T03:21:32;13.07;;;2.83;;
44774;SDS011;31340;51.402;0.016;2022-10-16T03:23:59;15.23;;;3.15;;
44774;SDS011;31340;51.402;0.016;2022-10-16T03:26:27;16.80;;;3.10;;
44774;SDS011;31340;51.402;0.016;2022-10-16T03:28:54;24.25;;;3.63;;
44774;SDS011;31340;51.402;0.016;2022-10-16T03:31:22;18.42;;;3.35;;
44774;SDS011;31340;51.402;0.016;2022-10-16T03:33:49;20.67;;;3.00;;
44774;SDS011;31340;51.402;0.016;2022-10-16T03:36:17;18.65;;;2.83;;
44774;SDS011;31340;51.402;0.016;2022-10-16T03:38:44;15.32;;;3.17;;
44774;SDS011;31340;51.402;0.016;2022-10-16T03:41:11;18.33;;;2.63;;
44774;SDS011;31340;51.402;0.016;2022-10-16T03:43:39;17.23;;;2.80;;
44774;SDS011;31340;51.402;0.016;2022-10-16T03:46:06;25.95;;;3.67;;
44774;SDS011;31340;51.402;0.016;2022-10-16T03:48:34;15.52;;;2.25;;
44774;SDS011;31340;51.402;0.016;2022-10-16T03:51:01;25.92;;;3.63;;
44774;SDS011;31340;51.402;0.016;2022-10-16T03:53:29;18.30;;;3.45;;
44774;SDS011;31340;51.402;0.016;2022-10-16T03:55:56;18.02;;;2.83;;
44774;SDS011;31340;51.402;0.016;2022-10-16T03:58:23;18.00;;;2.58;;
44774;SDS011;31340;51.402;0.016;2022-10-16T04:00:51;12.20;;;2.40;;
44774;SDS011;31340;51.402;0.016;2022-10-16T04:03:19;21.70;;;3.17;;
44774;SDS011;31340;51.402;0.016;2022-10-16T04:05:46;21.05;;;3.28;;
44774;SDS011;31340;51.402;0.016;2022-10-16T04:08:14;23.00;;;2.50;;
44774;SDS011;31340;51.402;0.016;2022-10-16T04:10:44;18.10;;;3.17;;
44774;SDS011;31340;51.402;0.016;2022-10-16T04:15:39;20.80;;;2.83;;
44774;SDS011;31340;51.402;0.016;2022-10-16T04:18:07;19.83;;;3.08;;
44774;SDS011;31340;51.402;0.016;2022-10-16T04:20:34;25.40;;;3.30;;
44774;SDS011;31340;51.402;0.016;2022-10-16T04:23:02;16.40;;;2.75;;
44774;SDS011;31340;51.402;0.016;2022-10-16T04:25:30;26.45;;;2.88;;
44774;SDS011;31340;51.402;0.016;2022-10-16T04:27:57;20.50;;;2.78;;
44774;SDS011;31340;51.402;0.016;2022-10-16T04:30:25;25.52;;;3.58;;
44774;SDS011;31340;51.402;0.016;2022-10-16T04:32:52;16.17;;;2.55;;
44774;SDS011;31340;51.402;0.016;2022-10-16T04:35:20;19.30;;;2.60;;
44774;SDS011;31340;51.402;0.016;2022-10-16T04:37:48;26.75;;;3.15;;
44774;SDS011;31340;51.402;0.016;2022-10-16T04:40:17;22.70;;;3.60;;
44774;SDS011;31340;51.402;0.016;2022-10-16T04:42:44;25.00;;;2.70;;
44774;SDS011;31340;51.402;0.016;2022-10-16T04:45:12;14.93;;;2.50;;
44774;SDS011;31340;51.402;0.016;2022-10-16T04:50:10;20.38;;;3.00;;
44774;SDS011;31340;51.402;0.016;2022-10-16T04:52:38;17.05;;;3.10;;
44774;SDS011;31340;51.402;0.016;2022-10-16T04:55:05;22.10;;;3.97;;
44774;SDS011;31340;51.402;0.016;2022-10-16T04:57:34;26.70;;;3.33;;
44774;SDS011;31340;51.402;0.016;2022-10-16T05:00:02;19.08;;;2.65;;
44774;SDS011;31340;51.402;0.016;2022-10-16T05:02:30;18.65;;;3.42;;
44774;SDS011;31340;51.402;0.016;2022-10-16T05:04:58;19.85;;;2.97;;
44774;SDS011;31340;51.402;0.016;2022-10-16T05:07:25;23.10;;;4.32;;
44774;SDS011;31340;51.402;0.016;2022-10-16T05:09:53;23.27;;;3.40;;
44774;SDS011;31340;51.402;0.016;2022-10-16T05:12:20;25.90;;;3.15;;
44774;SDS011;31340;51.402;0.016;2022-10-16T05:14:48;19.30;;;4.03;;
44774;SDS011;31340;51.402;0.016;2022-10-16T05:17:16;20.70;;;3.08;;
44774;SDS011;31340;51.402;0.016;2022-10-16T05:19:43;21.75;;;2.83;;
44774;SDS011;31340;51.402;0.016;2022-10-16T05:22:11;21.55;;;3.72;;
44774;SDS011;31340;51.402;0.016;2022-10-16T05:24:38;17.60;;;3.13;;
44774;SDS011;31340;51.402;0.016;2022-10-16T05:27:06;22.50;;;3.63;;
44774;SDS011;31340;51.402;0.016;2022-10-16T05:29:33;19.17;;;2.70;;
44774;SDS011;31340;51.402;0.016;2022-10-16T05:32:02;18.13;;;2.88;;
44774;SDS011;31340;51.402;0.016;2022-10-16T05:34:29;25.23;;;4.00;;
44774;SDS011;31340;51.402;0.016;2022-10-16T05:36:57;24.08;;;2.95;;
44774;SDS011;31340;51.402;0.016;2022-10-16T05:39:24;17.10;;;3.25;;
44774;SDS011;31340;51.402;0.016;2022-10-16T05:41:52;28.63;;;3.80;;
44774;SDS011;31340;51.402;0.016;2022-10-16T05:44:19;18.80;;;3.00;;
44774;SDS011;31340;51.402;0.016;2022-10-16T05:46:47;22.10;;;3.58;;
44774;SDS011;31340;51.402;0.016;2022-10-16T05:49:15;21.40;;;3.42;;
44774;SDS011;31340;51.402;0.016;2022-10-16T05:51:42;24.27;;;4.00;;
44774;SDS011;31340;51.402;0.016;2022-10-16T05:54:10;25.38;;;3.63;;
44774;SDS011;31340;51.402;0.016;2022-10-16T05:56:38;19.67;;;3.05;;
44774;SDS011;31340;51.402;0.016;2022-10-16T05:59:05;22.15;;;3.10;;
44774;SDS011;31340;51.402;0.016;2022-10-16T06:01:32;24.30;;;3.72;;
44774;SDS011;31340;51.402;0.016;2022-10-16T06:04:00;18.27;;;3.75;;
44774;SDS011;31340;51.402;0.016;2022-10-16T06:06:28;19.83;;;2.88;;
44774;SDS011;31340;51.402;0.016;2022-10-16T06:08:57;21.90;;;3.03;;
44774;SDS011;31340;51.402;0.016;2022-10-16T06:11:27;14.82;;;3.00;;
44774;SDS011;31340;51.402;0.016;2022-10-16T06:13:58;23.33;;;3.70;;
44774;SDS011;31340;51.402;0.016;2022-10-16T06:16:29;26.70;;;4.07;;
44774;SDS011;31340;51.402;0.016;2022-10-16T06:18:56;13.57;;;2.60;;
44774;SDS011;31340;51.402;0.016;2022-10-16T06:21:26;20.67;;;2.80;;
44774;SDS011;31340;51.402;0.016;2022-10-16T06:23:55;31.20;;;4.28;;
44774;SDS011;31340;51.402;0.016;2022-10-16T06:26:24;22.00;;;3.78;;
44774;SDS011;31340;51.402;0.016;2022-10-16T06:28:54;23.17;;;3.22;;
44774;SDS011;31340;51.402;0.016;2022-10-16T06:31:23;19.15;;;2.83;;
44774;SDS011;31340;51.402;0.016;2022-10-16T06:33:54;23.02;;;3.30;;
44774;SDS011;31340;51.402;0.016;2022-10-16T06:36:23;31.70;;;3.67;;
44774;SDS011;31340;51.402;0.016;2022-10-16T06:38:52;25.63;;;4.05;;
44774;SDS011;31340;51.402;0.016;2022-10-16T06:41:20;26.00;;;3.83;;
44774;SDS011;31340;51.402;0.016;2022-10-16T06:43:49;20.00;;;3.58;;
44774;SDS011;31340;51.402;0.016;2022-10-16T06:46:18;19.55;;;3.97;;
44774;SDS011;31340;51.402;0.016;2022-10-16T06:48:47;22.83;;;3.60;;
44774;SDS011;31340;51.402;0.016;2022-10-16T06:51:16;26.00;;;3.88;;
44774;SDS011;31340;51.402;0.016;2022-10-16T06:53:45;28.45;;;3.58;;
44774;SDS011;31340;51.402;0.016;2022-10-16T06:56:30;27.17;;;3.47;;
44774;SDS011;31340;51.402;0.016;2022-10-16T06:58:58;20.45;;;2.97;;
44774;SDS011;31340;51.402;0.016;2022-10-16T07:01:26;19.42;;;3.00;;
44774;SDS011;31340;51.402;0.016;2022-10-16T07:03:55;17.65;;;3.40;;
44774;SDS011;31340;51.402;0.016;2022-10-16T07:06:23;20.80;;;2.75;;
44774;SDS011;31340;51.402;0.016;2022-10-16T07:08:52;15.75;;;2.58;;
44774;SDS011;31340;51.402;0.016;2022-10-16T07:11:20;26.38;;;3.83;;
44774;SDS011;31340;51.402;0.016;2022-10-16T07:13:50;24.00;;;3.20;;
44774;SDS011;31340;51.402;0.016;2022-10-16T07:16:23;23.13;;;4.00;;
44774;SDS011;31340;51.402;0.016;2022-10-16T07:18:53;21.75;;;4.90;;
44774;SDS011;31340;51.402;0.016;2022-10-16T07:21:26;23.27;;;2.50;;
44774;SDS011;31340;51.402;0.016;2022-10-16T07:23:56;24.83;;;3.67;;
44774;SDS011;31340;51.402;0.016;2022-10-16T07:26:26;29.63;;;4.00;;
44774;SDS011;31340;51.402;0.016;2022-10-16T07:28:56;18.80;;;2.63;;
44774;SDS011;31340;51.402;0.016;2022-10-16T07:31:24;29.67;;;4.45;;
44774;SDS011;31340;51.402;0.016;2022-10-16T07:33:52;19.27;;;3.40;;
44774;SDS011;31340;51.402;0.016;2022-10-16T07:36:20;24.35;;;3.83;;
44774;SDS011;31340;51.402;0.016;2022-10-16T07:38:48;21.23;;;3.50;;
44774;SDS011;31340;51.402;0.016;2022-10-16T07:41:21;23.00;;;3.80;;
44774;SDS011;31340;51.402;0.016;2022-10-16T07:43:49;19.90;;;3.13;;
44774;SDS011;31340;51.402;0.016;2022-10-16T07:46:19;25.60;;;3.90;;
44774;SDS011;31340;51.402;0.016;2022-10-16T07:48:48;23.70;;;3.25;;
44774;SDS011;31340;51.402;0.016;2022-10-16T07:51:16;24.13;;;2.92;;
44774;SDS011;31340;51.402;0.016;2022-10-16T07:53:45;29.08;;;3.72;;
44774;SDS011;31340;51.402;0.016;2022-10-16T07:56:14;30.17;;;4.20;;
44774;SDS011;31340;51.402;0.016;2022-10-16T07:58:42;23.17;;;3.65;;
44774;SDS011;31340;51.402;0.016;2022-10-16T08:01:11;21.80;;;3.10;;
44774;SDS011;31340;51.402;0.016;2022-10-16T08:03:41;21.25;;;3.28;;
44774;SDS011;31340;51.402;0.016;2022-10-16T08:06:13;26.20;;;3.38;;
44774;SDS011;31340;51.402;0.016;2022-10-16T08:08:41;17.30;;;3.25;;
44774;SDS011;31340;51.402;0.016;2022-10-16T08:11:09;17.80;;;3.17;;
44774;SDS011;31340;51.402;0.016;2022-10-16T08:13:37;15.77;;;2.92;;
44774;SDS011;31340;51.402;0.016;2022-10-16T08:16:04;25.70;;;3.58;;
44774;SDS011;31340;51.402;0.016;2022-10-16T08:18:35;22.00;;;3.93;;
44774;SDS011;31340;51.402;0.016;2022-10-16T08:21:03;19.08;;;3.15;;
44774;SDS011;31340;51.402;0.016;2022-10-16T08:23:32;20.20;;;3.05;;
44774;SDS011;31340;51.402;0.016;2022-10-16T08:26:04;19.75;;;3.42;;
44774;SDS011;31340;51.402;0.016;2022-10-16T08:28:34;18.25;;;3.42;;
44774;SDS011;31340;51.402;0.016;2022-10-16T08:31:12;20.83;;;3.60;;
44774;SDS011;31340;51.402;0.016;2022-10-16T08:33:41;23.83;;;3.42;;
44774;SDS011;31340;51.402;0.016;2022-10-16T08:36:10;20.23;;;2.67;;
44774;SDS011;31340;51.402;0.016;2022-10-16T08:38:38;15.07;;;3.25;;
44774;SDS011;31340;51.402;0.016;2022-10-16T08:44:00;17.33;;;2.55;;
44774;SDS011;31340;51.402;0.016;2022-10-16T08:47:02;22.42;;;3.20;;
44774;SDS011;31340;51.402;0.016;2022-10-16T08:49:40;16.67;;;2.70;;
44774;SDS011;31340;51.402;0.016;2022-10-16T08:52:10;16.88;;;2.65;;
44774;SDS011;31340;51.402;0.016;2022-10-16T08:57:20;15.10;;;3.05;;
44774;SDS011;31340;51.402;0.016;2022-10-16T08:59:51;16.75;;;2.80;;
44774;SDS011;31340;51.402;0.016;2022-10-16T09:11:18;21.80;;;3.15;;
44774;SDS011;31340;51.402;0.016;2022-10-16T09:16:34;18.48;;;3.65;;
44774;SDS011;31340;51.402;0.016;2022-10-16T09:21:51;19.17;;;3.03;;
44774;SDS011;31340;51.402;0.016;2022-10-16T09:24:22;22.58;;;3.38;;
44774;SDS011;31340;51.402;0.016;2022-10-16T09:26:55;18.85;;;2.58;;
44774;SDS011;31340;51.402;0.016;2022-10-16T09:29:22;13.23;;;2.35;;
44774;SDS011;31340;51.402;0.016;2022-10-16T09:31:53;13.98;;;2.58;;
44774;SDS011;31340;51.402;0.016;2022-10-16T09:34:27;18.67;;;3.00;;
44774;SDS011;31340;51.402;0.016;2022-10-16T09:36:59;18.95;;;2.85;;
44774;SDS011;31340;51.402;0.016;2022-10-16T09:39:30;18.33;;;3.03;;
44774;SDS011;31340;51.402;0.016;2022-10-16T09:42:36;12.68;;;2.40;;
44774;SDS011;31340;51.402;0.016;2022-10-16T09:45:03;17.15;;;2.75;;
44774;SDS011;31340;51.402;0.016;2022-10-16T09:47:31;15.98;;;3.17;;
44774;SDS011;31340;51.402;0.016;2022-10-16T09:50:19;16.13;;;2.90;;
44774;SDS011;31340;51.402;0.016;2022-10-16T09:55:49;17.60;;;3.10;;
44774;SDS011;31340;51.402;0.016;2022-10-16T09:58:18;16.83;;;2.70;;
44774;SDS011;31340;51.402;0.016;2022-10-16T10:00:53;16.98;;;2.80;;
44774;SDS011;31340;51.402;0.016;2022-10-16T10:03:34;24.48;;;3.67;;
44774;SDS011;31340;51.402;0.016;2022-10-16T10:06:06;11.30;;;2.60;;
44774;SDS011;31340;51.402;0.016;2022-10-16T10:08:52;14.95;;;2.63;;
44774;SDS011;31340;51.402;0.016;2022-10-16T10:14:30;13.45;;;2.47;;
44774;SDS011;31340;51.402;0.016;2022-10-16T10:19:39;12.27;;;2.13;;
44774;SDS011;31340;51.402;0.016;2022-10-16T10:22:27;16.88;;;2.60;;
44774;SDS011;31340;51.402;0.016;2022-10-16T10:25:12;13.48;;;2.60;;
44774;SDS011;31340;51.402;0.016;2022-10-16T10:33:41;13.95;;;2.72;;
44774;SDS011;31340;51.402;0.016;2022-10-16T10:36:27;15.27;;;2.63;;
44774;SDS011;31340;51.402;0.016;2022-10-16T10:39:17;17.52;;;2.80;;
44774;SDS011;31340;51.402;0.016;2022-10-16T10:42:13;14.05;;;2.75;;
44774;SDS011;31340;51.402;0.016;2022-10-16T10:47:47;11.57;;;2.88;;
44774;SDS011;31340;51.402;0.016;2022-10-16T10:50:32;14.30;;;3.20;;
44774;SDS011;31340;51.402;0.016;2022-10-16T10:53:19;9.90;;;3.33;;
44774;SDS011;31340;51.402;0.016;2022-10-16T10:59:05;13.30;;;2.65;;
44774;SDS011;31340;51.402;0.016;2022-10-16T11:01:50;11.93;;;2.17;;
44774;SDS011;31340;51.402;0.016;2022-10-16T11:07:18;13.80;;;3.25;;
44774;SDS011;31340;51.402;0.016;2022-10-16T11:10:13;15.95;;;3.20;;
44774;SDS011;31340;51.402;0.016;2022-10-16T11:12:46;14.93;;;3.13;;
44774;SDS011;31340;51.402;0.016;2022-10-16T11:15:20;18.65;;;2.47;;
44774;SDS011;31340;51.402;0.016;2022-10-16T11:17:54;12.65;;;3.15;;
44774;SDS011;31340;51.402;0.016;2022-10-16T11:20:37;12.63;;;2.45;;
44774;SDS011;31340;51.402;0.016;2022-10-16T11:24:14;16.60;;;2.72;;
44774;SDS011;31340;51.402;0.016;2022-10-16T11:26:12;22.17;;;2.72;;
44774;SDS011;31340;51.402;0.016;2022-10-16T11:28:49;16.98;;;2.80;;
44774;SDS011;31340;51.402;0.016;2022-10-16T11:31:26;16.23;;;4.20;;
44774;SDS011;31340;51.402;0.016;2022-10-16T11:34:01;18.52;;;3.03;;
44774;SDS011;31340;51.402;0.016;2022-10-16T11:36:43;19.08;;;3.20;;
44774;SDS011;31340;51.402;0.016;2022-10-16T11:41:49;14.50;;;3.58;;
44774;SDS011;31340;51.402;0.016;2022-10-16T11:50:10;16.48;;;2.67;;
44774;SDS011;31340;51.402;0.016;2022-10-16T11:52:55;18.27;;;4.07;;
44774;SDS011;31340;51.402;0.016;2022-10-16T11:55:38;21.08;;;4.07;;
44774;SDS011;31340;51.402;0.016;2022-10-16T12:01:04;15.88;;;2.90;;
44774;SDS011;31340;51.402;0.016;2022-10-16T12:06:37;21.65;;;4.63;;
44774;SDS011;31340;51.402;0.016;2022-10-16T12:09:23;19.13;;;4.38;;
44774;SDS011;31340;51.402;0.016;2022-10-16T12:11:53;17.40;;;4.43;;
44774;SDS011;31340;51.402;0.016;2022-10-16T12:17:22;19.80;;;4.65;;
44774;SDS011;31340;51.402;0.016;2022-10-16T12:20:00;17.23;;;4.82;;
44774;SDS011;31340;51.402;0.016;2022-10-16T12:22:50;17.23;;;4.53;;
44774;SDS011;31340;51.402;0.016;2022-10-16T12:25:30;15.85;;;3.30;;
44774;SDS011;31340;51.402;0.016;2022-10-16T12:30:43;18.35;;;4.50;;
44774;SDS011;31340;51.402;0.016;2022-10-16T12:34:02;17.00;;;5.00;;
44774;SDS011;31340;51.402;0.016;2022-10-16T12:36:28;15.75;;;4.18;;
44774;SDS011;31340;51.402;0.016;2022-10-16T12:39:00;22.90;;;4.60;;
44774;SDS011;31340;51.402;0.016;2022-10-16T12:41:33;13.18;;;3.90;;
44774;SDS011;31340;51.402;0.016;2022-10-16T12:44:02;22.73;;;4.50;;
44774;SDS011;31340;51.402;0.016;2022-10-16T12:51:35;21.40;;;4.53;;
44774;SDS011;31340;51.402;0.016;2022-10-16T13:08:22;18.92;;;3.55;;
44774;SDS011;31340;51.402;0.016;2022-10-16T13:11:08;23.52;;;3.20;;
44774;SDS011;31340;51.402;0.016;2022-10-16T13:22:10;19.20;;;5.03;;
44774;SDS011;31340;51.402;0.016;2022-10-16T13:27:46;24.17;;;4.97;;
44774;SDS011;31340;51.402;0.016;2022-10-16T13:30:43;24.75;;;4.30;;
44774;SDS011;31340;51.402;0.016;2022-10-16T13:33:23;22.75;;;4.30;;
44774;SDS011;31340;51.402;0.016;2022-10-16T13:36:04;21.83;;;3.97;;
44774;SDS011;31340;51.402;0.016;2022-10-16T13:38:33;24.20;;;4.70;;
44774;SDS011;31340;51.402;0.016;2022-10-16T13:41:12;19.17;;;4.20;;
44774;SDS011;31340;51.402;0.016;2022-10-16T13:43:50;21.55;;;4.03;;
44774;SDS011;31340;51.402;0.016;2022-10-16T13:46:21;25.58;;;4.55;;
44774;SDS011;31340;51.402;0.016;2022-10-16T13:48:56;16.63;;;3.87;;
44774;SDS011;31340;51.402;0.016;2022-10-16T13:51:32;28.27;;;4.22;;
44774;SDS011;31340;51.402;0.016;2022-10-16T13:54:00;20.27;;;5.00;;
44774;SDS011;31340;51.402;0.016;2022-10-16T13:56:29;17.67;;;4.25;;
44774;SDS011;31340;51.402;0.016;2022-10-16T13:59:03;18.75;;;3.90;;
44774;SDS011;31340;51.402;0.016;2022-10-16T14:01:39;21.25;;;3.90;;
44774;SDS011;31340;51.402;0.016;2022-10-16T14:04:09;16.65;;;3.75;;
44774;SDS011;31340;51.402;0.016;2022-10-16T14:06:44;22.60;;;6.13;;
44774;SDS011;31340;51.402;0.016;2022-10-16T14:09:23;23.98;;;3.88;;
44774;SDS011;31340;51.402;0.016;2022-10-16T14:12:00;14.35;;;3.42;;
44774;SDS011;31340;51.402;0.016;2022-10-16T14:14:34;14.85;;;3.65;;
44774;SDS011;31340;51.402;0.016;2022-10-16T14:17:23;24.90;;;4.88;;
44774;SDS011;31340;51.402;0.016;2022-10-16T14:20:02;27.77;;;4.60;;
44774;SDS011;31340;51.402;0.016;2022-10-16T14:22:34;18.30;;;4.10;;
44774;SDS011;31340;51.402;0.016;2022-10-16T14:28:13;20.90;;;4.38;;
44774;SDS011;31340;51.402;0.016;2022-10-16T14:30:55;23.95;;;4.72;;
44774;SDS011;31340;51.402;0.016;2022-10-16T14:35:59;26.35;;;5.85;;
44774;SDS011;31340;51.402;0.016;2022-10-16T14:38:33;25.02;;;6.55;;
44774;SDS011;31340;51.402;0.016;2022-10-16T14:41:01;31.52;;;6.88;;
44774;SDS011;31340;51.402;0.016;2022-10-16T14:46:02;20.65;;;4.20;;
44774;SDS011;31340;51.402;0.016;2022-10-16T14:48:35;26.92;;;4.13;;
44774;SDS011;31340;51.402;0.016;2022-10-16T14:51:08;18.48;;;3.38;;
44774;SDS011;31340;51.402;0.016;2022-10-16T14:53:41;21.25;;;4.10;;
44774;SDS011;31340;51.402;0.016;2022-10-16T14:56:56;18.98;;;4.50;;
44774;SDS011;31340;51.402;0.016;2022-10-16T14:59:00;19.05;;;4.55;;
44774;SDS011;31340;51.402;0.016;2022-10-16T15:01:29;15.88;;;3.60;;
44774;SDS011;31340;51.402;0.016;2022-10-16T15:03:56;21.80;;;4.78;;
44774;SDS011;31340;51.402;0.016;2022-10-16T15:06:24;25.52;;;4.43;;
44774;SDS011;31340;51.402;0.016;2022-10-16T15:08:51;19.00;;;4.15;;
44774;SDS011;31340;51.402;0.016;2022-10-16T15:11:19;19.15;;;3.13;;
44774;SDS011;31340;51.402;0.016;2022-10-16T15:13:47;19.42;;;3.80;;
44774;SDS011;31340;51.402;0.016;2022-10-16T15:16:17;33.72;;;6.03;;
44774;SDS011;31340;51.402;0.016;2022-10-16T15:18:45;31.05;;;4.95;;
44774;SDS011;31340;51.402;0.016;2022-10-16T15:21:22;23.42;;;4.65;;
44774;SDS011;31340;51.402;0.016;2022-10-16T15:23:53;30.17;;;8.48;;
44774;SDS011;31340;51.402;0.016;2022-10-16T15:26:20;28.95;;;6.47;;
44774;SDS011;31340;51.402;0.016;2022-10-16T15:28:48;26.52;;;4.50;;
44774;SDS011;31340;51.402;0.016;2022-10-16T15:31:15;21.38;;;4.03;;
44774;SDS011;31340;51.402;0.016;2022-10-16T15:33:43;25.45;;;4.75;;
44774;SDS011;31340;51.402;0.016;2022-10-16T15:36:10;17.33;;;3.55;;
44774;SDS011;31340;51.402;0.016;2022-10-16T15:38:38;20.33;;;3.63;;
44774;SDS011;31340;51.402;0.016;2022-10-16T15:41:05;19.35;;;4.25;;
44774;SDS011;31340;51.402;0.016;2022-10-16T15:43:33;13.70;;;3.30;;
44774;SDS011;31340;51.402;0.016;2022-10-16T15:46:01;24.63;;;5.35;;
44774;SDS011;31340;51.402;0.016;2022-10-16T15:48:31;16.48;;;4.28;;
44774;SDS011;31340;51.402;0.016;2022-10-16T15:51:00;23.45;;;6.30;;
44774;SDS011;31340;51.402;0.016;2022-10-16T15:53:31;21.42;;;5.15;;
44774;SDS011;31340;51.402;0.016;2022-10-16T15:56:00;16.00;;;3.72;;
44774;SDS011;31340;51.402;0.016;2022-10-16T15:58:32;25.52;;;7.45;;
44774;SDS011;31340;51.402;0.016;2022-10-16T16:01:00;20.23;;;5.10;;
44774;SDS011;31340;51.402;0.016;2022-10-16T16:03:29;13.93;;;4.03;;
44774;SDS011;31340;51.402;0.016;2022-10-16T16:05:57;23.65;;;4.63;;
44774;SDS011;31340;51.402;0.016;2022-10-16T16:08:30;24.73;;;4.05;;
44774;SDS011;31340;51.402;0.016;2022-10-16T16:11:33;22.45;;;4.60;;
44774;SDS011;31340;51.402;0.016;2022-10-16T16:13:52;24.75;;;5.47;;
44774;SDS011;31340;51.402;0.016;2022-10-16T16:16:21;15.20;;;4.47;;
44774;SDS011;31340;51.402;0.016;2022-10-16T16:18:50;17.70;;;4.00;;
44774;SDS011;31340;51.402;0.016;2022-10-16T16:21:19;18.75;;;4.45;;
44774;SDS011;31340;51.402;0.016;2022-10-16T16:23:47;25.23;;;7.90;;
44774;SDS011;31340;51.402;0.016;2022-10-16T16:26:20;27.85;;;11.20;;
44774;SDS011;31340;51.402;0.016;2022-10-16T16:28:53;47.10;;;24.00;;
44774;SDS011;31340;51.402;0.016;2022-10-16T16:31:26;51.13;;;18.77;;
44774;SDS011;31340;51.402;0.016;2022-10-16T16:33:54;39.20;;;15.60;;
44774;SDS011;31340;51.402;0.016;2022-10-16T16:36:24;64.40;;;27.70;;
44774;SDS011;31340;51.402;0.016;2022-10-16T16:38:52;35.53;;;10.88;;
44774;SDS011;31340;51.402;0.016;2022-10-16T16:41:21;24.98;;;7.65;;
44774;SDS011;31340;51.402;0.016;2022-10-16T16:43:54;19.65;;;5.10;;
44774;SDS011;31340;51.402;0.016;2022-10-16T16:46:22;16.23;;;3.83;;
44774;SDS011;31340;51.402;0.016;2022-10-16T16:48:49;19.55;;;6.03;;
44774;SDS011;31340;51.402;0.016;2022-10-16T16:51:17;28.58;;;5.50;;
44774;SDS011;31340;51.402;0.016;2022-10-16T16:53:47;23.13;;;6.43;;
44774;SDS011;31340;51.402;0.016;2022-10-16T16:56:17;20.50;;;5.50;;
44774;SDS011;31340;51.402;0.016;2022-10-16T16:58:46;18.42;;;4.60;;
44774;SDS011;31340;51.402;0.016;2022-10-16T17:01:14;21.95;;;5.63;;
44774;SDS011;31340;51.402;0.016;2022-10-16T17:03:46;19.45;;;4.55;;